sensor_id;sensor_type;location;lat;lon;timestamp;P1;durP1;ratioP1;P2;durP2;ratioP2
39540;SDS011;25219;52.244;21.006;2023-11-19T00:00:22;46.35;;;22.45;;
39540;SDS011;25219;52.244;21.006;2023-11-19T00:02:48;52.53;;;23.23;;
39540;SDS011;25219;52.244;21.006;2023-11-19T00:05:13;54.03;;;22.10;;
39540;SDS011;25219;52.244;21.006;2023-11-19T00:07:39;43.05;;;21.10;;
39540;SDS011;25219;52.244;21.006;2023-11-19T00:10:07;50.60;;;23.38;;
39540;SDS011;25219;52.244;21.006;2023-11-19T00:12:34;52.55;;;23.02;;
39540;SDS011;25219;52.244;21.006;2023-11-19T00:14:59;56.65;;;22.25;;
39540;SDS011;25219;52.244;21.006;2023-11-19T00:17:24;51.33;;;21.77;;
39540;SDS011;25219;52.244;21.006;2023-11-19T00:19:50;54.00;;;22.40;;
39540;SDS011;25219;52.244;21.006;2023-11-19T00:22:16;46.38;;;22.08;;
39540;SDS011;25219;52.244;21.006;2023-11-19T00:24:41;47.55;;;21.42;;
39540;SDS011;25219;52.244;21.006;2023-11-19T00:27:06;49.20;;;22.88;;
39540;SDS011;25219;52.244;21.006;2023-11-19T00:29:32;48.67;;;23.08;;
39540;SDS011;25219;52.244;21.006;2023-11-19T00:31:58;48.93;;;22.13;;
39540;SDS011;25219;52.244;21.006;2023-11-19T00:34:23;50.33;;;21.50;;
39540;SDS011;25219;52.244;21.006;2023-11-19T00:36:48;53.40;;;22.55;;
39540;SDS011;25219;52.244;21.006;2023-11-19T00:39:14;51.45;;;22.17;;
39540;SDS011;25219;52.244;21.006;2023-11-19T00:41:40;46.53;;;21.20;;
39540;SDS011;25219;52.244;21.006;2023-11-19T00:44:05;52.17;;;21.80;;
39540;SDS011;25219;52.244;21.006;2023-11-19T00:46:30;48.70;;;22.67;;
39540;SDS011;25219;52.244;21.006;2023-11-19T00:48:57;73.18;;;33.60;;
39540;SDS011;25219;52.244;21.006;2023-11-19T00:51:24;49.63;;;23.00;;
39540;SDS011;25219;52.244;21.006;2023-11-19T00:53:49;47.83;;;22.85;;
39540;SDS011;25219;52.244;21.006;2023-11-19T00:56:15;43.55;;;21.65;;
39540;SDS011;25219;52.244;21.006;2023-11-19T00:58:42;53.80;;;23.77;;
39540;SDS011;25219;52.244;21.006;2023-11-19T01:01:07;55.60;;;24.45;;
39540;SDS011;25219;52.244;21.006;2023-11-19T01:03:32;59.37;;;26.17;;
39540;SDS011;25219;52.244;21.006;2023-11-19T01:05:58;48.90;;;22.88;;
39540;SDS011;25219;52.244;21.006;2023-11-19T01:08:24;54.58;;;23.00;;
39540;SDS011;25219;52.244;21.006;2023-11-19T01:10:49;56.90;;;26.00;;
39540;SDS011;25219;52.244;21.006;2023-11-19T01:13:15;52.57;;;23.00;;
39540;SDS011;25219;52.244;21.006;2023-11-19T01:15:40;59.80;;;23.93;;
39540;SDS011;25219;52.244;21.006;2023-11-19T01:18:06;51.85;;;24.27;;
39540;SDS011;25219;52.244;21.006;2023-11-19T01:20:33;48.95;;;22.35;;
39540;SDS011;25219;52.244;21.006;2023-11-19T01:22:59;50.20;;;22.98;;
39540;SDS011;25219;52.244;21.006;2023-11-19T01:25:24;49.28;;;23.73;;
39540;SDS011;25219;52.244;21.006;2023-11-19T01:27:50;63.45;;;24.05;;
39540;SDS011;25219;52.244;21.006;2023-11-19T01:30:15;52.45;;;23.50;;
39540;SDS011;25219;52.244;21.006;2023-11-19T01:32:40;59.83;;;25.23;;
39540;SDS011;25219;52.244;21.006;2023-11-19T01:35:06;64.30;;;25.40;;
39540;SDS011;25219;52.244;21.006;2023-11-19T01:37:31;62.08;;;25.63;;
39540;SDS011;25219;52.244;21.006;2023-11-19T01:39:57;54.80;;;23.27;;
39540;SDS011;25219;52.244;21.006;2023-11-19T01:42:22;56.42;;;25.60;;
39540;SDS011;25219;52.244;21.006;2023-11-19T01:44:59;50.92;;;23.67;;
39540;SDS011;25219;52.244;21.006;2023-11-19T01:47:27;61.28;;;26.35;;
39540;SDS011;25219;52.244;21.006;2023-11-19T01:49:53;61.40;;;26.40;;
39540;SDS011;25219;52.244;21.006;2023-11-19T01:52:18;61.15;;;26.65;;
39540;SDS011;25219;52.244;21.006;2023-11-19T01:54:45;63.17;;;26.90;;
39540;SDS011;25219;52.244;21.006;2023-11-19T01:57:10;57.92;;;27.00;;
39540;SDS011;25219;52.244;21.006;2023-11-19T01:59:35;62.50;;;26.85;;
39540;SDS011;25219;52.244;21.006;2023-11-19T02:02:01;58.15;;;25.80;;
39540;SDS011;25219;52.244;21.006;2023-11-19T02:04:26;58.83;;;25.63;;
39540;SDS011;25219;52.244;21.006;2023-11-19T02:06:51;63.88;;;28.20;;
39540;SDS011;25219;52.244;21.006;2023-11-19T02:09:19;62.15;;;25.02;;
39540;SDS011;25219;52.244;21.006;2023-11-19T02:11:44;59.97;;;24.70;;
39540;SDS011;25219;52.244;21.006;2023-11-19T02:14:10;66.50;;;26.10;;
39540;SDS011;25219;52.244;21.006;2023-11-19T02:16:36;56.55;;;25.17;;
39540;SDS011;25219;52.244;21.006;2023-11-19T02:19:01;59.17;;;25.67;;
39540;SDS011;25219;52.244;21.006;2023-11-19T02:21:26;54.38;;;24.38;;
39540;SDS011;25219;52.244;21.006;2023-11-19T02:23:51;55.90;;;24.17;;
39540;SDS011;25219;52.244;21.006;2023-11-19T02:26:18;64.38;;;24.40;;
39540;SDS011;25219;52.244;21.006;2023-11-19T02:28:47;52.75;;;23.67;;
39540;SDS011;25219;52.244;21.006;2023-11-19T02:31:12;55.33;;;22.98;;
39540;SDS011;25219;52.244;21.006;2023-11-19T02:33:38;51.63;;;22.80;;
39540;SDS011;25219;52.244;21.006;2023-11-19T02:36:07;57.75;;;23.42;;
39540;SDS011;25219;52.244;21.006;2023-11-19T02:38:33;54.13;;;23.08;;
39540;SDS011;25219;52.244;21.006;2023-11-19T02:40:58;54.70;;;22.80;;
39540;SDS011;25219;52.244;21.006;2023-11-19T02:43:23;53.35;;;23.00;;
39540;SDS011;25219;52.244;21.006;2023-11-19T02:45:48;52.42;;;22.75;;
39540;SDS011;25219;52.244;21.006;2023-11-19T02:48:14;55.13;;;22.40;;
39540;SDS011;25219;52.244;21.006;2023-11-19T02:50:41;58.97;;;23.13;;
39540;SDS011;25219;52.244;21.006;2023-11-19T02:53:06;56.50;;;23.67;;
39540;SDS011;25219;52.244;21.006;2023-11-19T02:55:31;58.83;;;24.33;;
39540;SDS011;25219;52.244;21.006;2023-11-19T02:58:02;54.45;;;24.13;;
39540;SDS011;25219;52.244;21.006;2023-11-19T03:03:08;62.38;;;25.92;;
39540;SDS011;25219;52.244;21.006;2023-11-19T03:05:45;59.58;;;25.33;;
39540;SDS011;25219;52.244;21.006;2023-11-19T03:08:11;62.80;;;26.63;;
39540;SDS011;25219;52.244;21.006;2023-11-19T03:10:37;65.78;;;28.42;;
39540;SDS011;25219;52.244;21.006;2023-11-19T03:13:02;61.33;;;24.73;;
39540;SDS011;25219;52.244;21.006;2023-11-19T03:15:28;61.25;;;25.38;;
39540;SDS011;25219;52.244;21.006;2023-11-19T03:17:53;65.68;;;26.98;;
39540;SDS011;25219;52.244;21.006;2023-11-19T03:20:19;62.55;;;27.50;;
39540;SDS011;25219;52.244;21.006;2023-11-19T03:22:45;62.22;;;26.08;;
39540;SDS011;25219;52.244;21.006;2023-11-19T03:25:11;60.40;;;23.77;;
39540;SDS011;25219;52.244;21.006;2023-11-19T03:27:39;59.70;;;25.30;;
39540;SDS011;25219;52.244;21.006;2023-11-19T03:30:06;57.88;;;25.50;;
39540;SDS011;25219;52.244;21.006;2023-11-19T03:32:32;56.10;;;22.52;;
39540;SDS011;25219;52.244;21.006;2023-11-19T03:34:58;50.58;;;23.05;;
39540;SDS011;25219;52.244;21.006;2023-11-19T03:37:23;52.05;;;22.42;;
39540;SDS011;25219;52.244;21.006;2023-11-19T03:39:49;57.38;;;24.15;;
39540;SDS011;25219;52.244;21.006;2023-11-19T03:42:14;55.00;;;24.10;;
39540;SDS011;25219;52.244;21.006;2023-11-19T03:44:39;49.75;;;22.63;;
39540;SDS011;25219;52.244;21.006;2023-11-19T03:47:04;49.37;;;20.23;;
39540;SDS011;25219;52.244;21.006;2023-11-19T03:49:30;55.20;;;22.42;;
39540;SDS011;25219;52.244;21.006;2023-11-19T03:51:55;47.72;;;19.50;;
39540;SDS011;25219;52.244;21.006;2023-11-19T03:54:20;38.97;;;18.05;;
39540;SDS011;25219;52.244;21.006;2023-11-19T03:56:48;36.85;;;17.35;;
39540;SDS011;25219;52.244;21.006;2023-11-19T03:59:13;42.40;;;18.35;;
39540;SDS011;25219;52.244;21.006;2023-11-19T04:01:38;44.67;;;20.03;;
39540;SDS011;25219;52.244;21.006;2023-11-19T04:04:03;41.47;;;18.17;;
39540;SDS011;25219;52.244;21.006;2023-11-19T04:06:28;44.10;;;19.93;;
39540;SDS011;25219;52.244;21.006;2023-11-19T04:08:54;45.10;;;20.60;;
39540;SDS011;25219;52.244;21.006;2023-11-19T04:11:19;41.87;;;20.07;;
39540;SDS011;25219;52.244;21.006;2023-11-19T04:13:44;40.80;;;18.37;;
39540;SDS011;25219;52.244;21.006;2023-11-19T04:16:09;43.03;;;20.17;;
39540;SDS011;25219;52.244;21.006;2023-11-19T04:18:34;45.85;;;18.65;;
39540;SDS011;25219;52.244;21.006;2023-11-19T04:21:00;45.13;;;19.27;;
39540;SDS011;25219;52.244;21.006;2023-11-19T04:23:25;44.90;;;18.80;;
39540;SDS011;25219;52.244;21.006;2023-11-19T04:25:50;49.83;;;21.63;;
39540;SDS011;25219;52.244;21.006;2023-11-19T04:28:15;51.70;;;22.20;;
39540;SDS011;25219;52.244;21.006;2023-11-19T04:30:41;45.47;;;19.33;;
39540;SDS011;25219;52.244;21.006;2023-11-19T04:33:06;49.80;;;20.30;;
39540;SDS011;25219;52.244;21.006;2023-11-19T04:35:31;43.90;;;18.73;;
39540;SDS011;25219;52.244;21.006;2023-11-19T04:37:56;39.90;;;18.53;;
39540;SDS011;25219;52.244;21.006;2023-11-19T04:40:22;48.88;;;19.60;;
39540;SDS011;25219;52.244;21.006;2023-11-19T04:42:47;56.70;;;20.77;;
39540;SDS011;25219;52.244;21.006;2023-11-19T04:45:13;56.30;;;23.58;;
39540;SDS011;25219;52.244;21.006;2023-11-19T04:47:38;46.35;;;20.70;;
39540;SDS011;25219;52.244;21.006;2023-11-19T04:50:04;48.30;;;19.02;;
39540;SDS011;25219;52.244;21.006;2023-11-19T04:52:29;47.08;;;18.80;;
39540;SDS011;25219;52.244;21.006;2023-11-19T04:54:54;47.53;;;19.70;;
39540;SDS011;25219;52.244;21.006;2023-11-19T04:57:19;45.77;;;18.90;;
39540;SDS011;25219;52.244;21.006;2023-11-19T04:59:45;43.60;;;18.92;;
39540;SDS011;25219;52.244;21.006;2023-11-19T05:02:10;47.20;;;19.88;;
39540;SDS011;25219;52.244;21.006;2023-11-19T05:04:35;39.95;;;18.40;;
39540;SDS011;25219;52.244;21.006;2023-11-19T05:07:02;43.58;;;19.33;;
39540;SDS011;25219;52.244;21.006;2023-11-19T05:09:27;43.88;;;19.10;;
39540;SDS011;25219;52.244;21.006;2023-11-19T05:11:53;38.23;;;17.67;;
39540;SDS011;25219;52.244;21.006;2023-11-19T05:14:18;47.22;;;18.75;;
39540;SDS011;25219;52.244;21.006;2023-11-19T05:16:45;43.60;;;19.00;;
39540;SDS011;25219;52.244;21.006;2023-11-19T05:19:10;42.88;;;17.65;;
39540;SDS011;25219;52.244;21.006;2023-11-19T05:21:36;40.38;;;17.70;;
39540;SDS011;25219;52.244;21.006;2023-11-19T05:24:01;41.22;;;17.30;;
39540;SDS011;25219;52.244;21.006;2023-11-19T05:26:29;44.83;;;19.08;;
39540;SDS011;25219;52.244;21.006;2023-11-19T05:28:54;52.08;;;20.52;;
39540;SDS011;25219;52.244;21.006;2023-11-19T05:31:20;51.77;;;20.10;;
39540;SDS011;25219;52.244;21.006;2023-11-19T05:33:45;57.23;;;21.60;;
39540;SDS011;25219;52.244;21.006;2023-11-19T05:36:10;55.63;;;22.63;;
39540;SDS011;25219;52.244;21.006;2023-11-19T05:38:36;52.08;;;20.40;;
39540;SDS011;25219;52.244;21.006;2023-11-19T05:41:02;53.83;;;21.58;;
39540;SDS011;25219;52.244;21.006;2023-11-19T05:43:27;46.25;;;18.85;;
39540;SDS011;25219;52.244;21.006;2023-11-19T05:45:52;47.90;;;18.97;;
39540;SDS011;25219;52.244;21.006;2023-11-19T05:48:17;53.87;;;20.37;;
39540;SDS011;25219;52.244;21.006;2023-11-19T05:50:42;45.35;;;19.40;;
39540;SDS011;25219;52.244;21.006;2023-11-19T05:53:08;47.17;;;18.00;;
39540;SDS011;25219;52.244;21.006;2023-11-19T05:55:38;42.63;;;17.98;;
39540;SDS011;25219;52.244;21.006;2023-11-19T05:58:11;35.70;;;15.90;;
39540;SDS011;25219;52.244;21.006;2023-11-19T06:00:37;34.38;;;15.10;;
39540;SDS011;25219;52.244;21.006;2023-11-19T06:03:02;39.53;;;15.95;;
39540;SDS011;25219;52.244;21.006;2023-11-19T06:05:27;34.87;;;15.53;;
39540;SDS011;25219;52.244;21.006;2023-11-19T06:07:53;38.93;;;16.20;;
39540;SDS011;25219;52.244;21.006;2023-11-19T06:10:18;35.50;;;15.37;;
39540;SDS011;25219;52.244;21.006;2023-11-19T06:12:45;29.98;;;12.75;;
39540;SDS011;25219;52.244;21.006;2023-11-19T06:15:11;27.05;;;12.30;;
39540;SDS011;25219;52.244;21.006;2023-11-19T06:17:36;31.95;;;13.20;;
39540;SDS011;25219;52.244;21.006;2023-11-19T06:20:01;25.83;;;11.77;;
39540;SDS011;25219;52.244;21.006;2023-11-19T06:22:29;25.50;;;11.30;;
39540;SDS011;25219;52.244;21.006;2023-11-19T06:24:54;23.90;;;11.63;;
39540;SDS011;25219;52.244;21.006;2023-11-19T06:27:19;24.80;;;10.73;;
39540;SDS011;25219;52.244;21.006;2023-11-19T06:29:44;24.58;;;11.30;;
39540;SDS011;25219;52.244;21.006;2023-11-19T06:32:10;21.57;;;11.17;;
39540;SDS011;25219;52.244;21.006;2023-11-19T06:34:35;27.70;;;10.73;;
39540;SDS011;25219;52.244;21.006;2023-11-19T06:37:00;20.35;;;9.70;;
39540;SDS011;25219;52.244;21.006;2023-11-19T06:39:28;20.27;;;10.93;;
39540;SDS011;25219;52.244;21.006;2023-11-19T06:41:53;19.33;;;9.57;;
39540;SDS011;25219;52.244;21.006;2023-11-19T06:44:18;23.17;;;11.03;;
39540;SDS011;25219;52.244;21.006;2023-11-19T06:46:43;21.10;;;9.65;;
39540;SDS011;25219;52.244;21.006;2023-11-19T06:49:09;20.93;;;10.33;;
39540;SDS011;25219;52.244;21.006;2023-11-19T06:51:34;25.08;;;10.75;;
39540;SDS011;25219;52.244;21.006;2023-11-19T06:53:59;15.45;;;7.75;;
39540;SDS011;25219;52.244;21.006;2023-11-19T06:56:24;15.13;;;8.27;;
39540;SDS011;25219;52.244;21.006;2023-11-19T06:58:50;17.80;;;8.95;;
39540;SDS011;25219;52.244;21.006;2023-11-19T07:01:16;19.60;;;9.50;;
39540;SDS011;25219;52.244;21.006;2023-11-19T07:03:41;20.00;;;9.77;;
39540;SDS011;25219;52.244;21.006;2023-11-19T07:06:06;19.92;;;9.90;;
39540;SDS011;25219;52.244;21.006;2023-11-19T07:08:32;20.15;;;10.80;;
39540;SDS011;25219;52.244;21.006;2023-11-19T07:10:57;21.50;;;10.30;;
39540;SDS011;25219;52.244;21.006;2023-11-19T07:13:22;21.35;;;10.18;;
39540;SDS011;25219;52.244;21.006;2023-11-19T07:15:48;19.83;;;9.67;;
39540;SDS011;25219;52.244;21.006;2023-11-19T07:18:13;20.42;;;10.13;;
39540;SDS011;25219;52.244;21.006;2023-11-19T07:20:38;19.55;;;9.80;;
39540;SDS011;25219;52.244;21.006;2023-11-19T07:23:04;18.15;;;9.30;;
39540;SDS011;25219;52.244;21.006;2023-11-19T07:25:30;19.50;;;10.35;;
39540;SDS011;25219;52.244;21.006;2023-11-19T07:27:55;17.80;;;9.10;;
39540;SDS011;25219;52.244;21.006;2023-11-19T07:30:21;16.13;;;8.90;;
39540;SDS011;25219;52.244;21.006;2023-11-19T07:32:46;18.83;;;9.73;;
39540;SDS011;25219;52.244;21.006;2023-11-19T07:35:11;18.90;;;9.75;;
39540;SDS011;25219;52.244;21.006;2023-11-19T07:37:36;15.48;;;9.02;;
39540;SDS011;25219;52.244;21.006;2023-11-19T07:40:02;17.88;;;9.20;;
39540;SDS011;25219;52.244;21.006;2023-11-19T07:42:28;16.38;;;9.70;;
39540;SDS011;25219;52.244;21.006;2023-11-19T07:44:54;15.07;;;9.32;;
39540;SDS011;25219;52.244;21.006;2023-11-19T07:47:21;17.70;;;9.68;;
39540;SDS011;25219;52.244;21.006;2023-11-19T07:49:48;19.17;;;9.60;;
39540;SDS011;25219;52.244;21.006;2023-11-19T07:52:13;18.48;;;10.10;;
39540;SDS011;25219;52.244;21.006;2023-11-19T07:54:38;17.95;;;10.07;;
39540;SDS011;25219;52.244;21.006;2023-11-19T07:57:04;20.55;;;10.73;;
39540;SDS011;25219;52.244;21.006;2023-11-19T07:59:29;16.35;;;9.57;;
39540;SDS011;25219;52.244;21.006;2023-11-19T08:01:54;18.83;;;10.15;;
39540;SDS011;25219;52.244;21.006;2023-11-19T08:04:19;18.87;;;10.17;;
39540;SDS011;25219;52.244;21.006;2023-11-19T08:06:44;19.03;;;10.73;;
39540;SDS011;25219;52.244;21.006;2023-11-19T08:09:10;20.27;;;10.93;;
39540;SDS011;25219;52.244;21.006;2023-11-19T08:11:39;22.45;;;11.60;;
39540;SDS011;25219;52.244;21.006;2023-11-19T08:14:04;19.33;;;10.65;;
39540;SDS011;25219;52.244;21.006;2023-11-19T08:16:29;19.85;;;11.57;;
39540;SDS011;25219;52.244;21.006;2023-11-19T08:18:55;19.17;;;10.10;;
39540;SDS011;25219;52.244;21.006;2023-11-19T08:21:20;19.83;;;10.45;;
39540;SDS011;25219;52.244;21.006;2023-11-19T08:23:47;19.55;;;10.05;;
39540;SDS011;25219;52.244;21.006;2023-11-19T08:26:14;20.20;;;10.82;;
39540;SDS011;25219;52.244;21.006;2023-11-19T08:28:39;19.02;;;10.98;;
39540;SDS011;25219;52.244;21.006;2023-11-19T08:31:04;22.60;;;11.73;;
39540;SDS011;25219;52.244;21.006;2023-11-19T08:33:30;20.63;;;10.70;;
39540;SDS011;25219;52.244;21.006;2023-11-19T08:35:55;19.75;;;10.73;;
39540;SDS011;25219;52.244;21.006;2023-11-19T08:38:20;19.40;;;11.00;;
39540;SDS011;25219;52.244;21.006;2023-11-19T08:40:46;20.95;;;11.23;;
39540;SDS011;25219;52.244;21.006;2023-11-19T08:43:11;21.42;;;10.68;;
39540;SDS011;25219;52.244;21.006;2023-11-19T08:45:36;20.80;;;9.97;;
39540;SDS011;25219;52.244;21.006;2023-11-19T08:48:01;20.38;;;10.98;;
39540;SDS011;25219;52.244;21.006;2023-11-19T08:50:27;20.93;;;10.37;;
39540;SDS011;25219;52.244;21.006;2023-11-19T08:52:52;19.13;;;9.95;;
39540;SDS011;25219;52.244;21.006;2023-11-19T08:55:17;21.17;;;10.37;;
39540;SDS011;25219;52.244;21.006;2023-11-19T08:57:42;19.52;;;9.68;;
39540;SDS011;25219;52.244;21.006;2023-11-19T09:00:08;21.80;;;10.55;;
39540;SDS011;25219;52.244;21.006;2023-11-19T09:02:34;21.60;;;11.02;;
39540;SDS011;25219;52.244;21.006;2023-11-19T09:04:59;23.42;;;10.98;;
39540;SDS011;25219;52.244;21.006;2023-11-19T09:07:24;21.60;;;11.23;;
39540;SDS011;25219;52.244;21.006;2023-11-19T09:09:50;20.87;;;10.33;;
39540;SDS011;25219;52.244;21.006;2023-11-19T09:12:15;20.50;;;10.00;;
39540;SDS011;25219;52.244;21.006;2023-11-19T09:14:40;18.83;;;10.37;;
39540;SDS011;25219;52.244;21.006;2023-11-19T09:17:06;22.17;;;10.43;;
39540;SDS011;25219;52.244;21.006;2023-11-19T09:19:32;20.00;;;10.17;;
39540;SDS011;25219;52.244;21.006;2023-11-19T09:21:57;20.77;;;10.10;;
39540;SDS011;25219;52.244;21.006;2023-11-19T09:24:23;20.00;;;9.88;;
39540;SDS011;25219;52.244;21.006;2023-11-19T09:26:48;17.93;;;9.83;;
39540;SDS011;25219;52.244;21.006;2023-11-19T09:29:13;20.23;;;10.00;;
39540;SDS011;25219;52.244;21.006;2023-11-19T09:31:39;16.83;;;9.25;;
39540;SDS011;25219;52.244;21.006;2023-11-19T09:34:04;19.10;;;10.15;;
39540;SDS011;25219;52.244;21.006;2023-11-19T09:36:30;16.95;;;9.38;;
39540;SDS011;25219;52.244;21.006;2023-11-19T09:38:56;18.73;;;9.57;;
39540;SDS011;25219;52.244;21.006;2023-11-19T09:41:21;18.35;;;9.65;;
39540;SDS011;25219;52.244;21.006;2023-11-19T09:43:46;20.17;;;10.32;;
39540;SDS011;25219;52.244;21.006;2023-11-19T09:46:12;23.38;;;10.43;;
39540;SDS011;25219;52.244;21.006;2023-11-19T09:48:38;21.17;;;10.50;;
39540;SDS011;25219;52.244;21.006;2023-11-19T09:51:05;18.52;;;10.60;;
39540;SDS011;25219;52.244;21.006;2023-11-19T09:53:31;21.92;;;10.57;;
39540;SDS011;25219;52.244;21.006;2023-11-19T09:55:57;20.90;;;11.55;;
39540;SDS011;25219;52.244;21.006;2023-11-19T09:58:23;18.50;;;10.20;;
39540;SDS011;25219;52.244;21.006;2023-11-19T10:00:49;20.20;;;11.10;;
39540;SDS011;25219;52.244;21.006;2023-11-19T10:03:15;22.95;;;11.75;;
39540;SDS011;25219;52.244;21.006;2023-11-19T10:05:40;23.15;;;11.35;;
39540;SDS011;25219;52.244;21.006;2023-11-19T10:08:06;21.23;;;11.07;;
39540;SDS011;25219;52.244;21.006;2023-11-19T10:10:31;24.17;;;12.90;;
39540;SDS011;25219;52.244;21.006;2023-11-19T10:12:56;22.25;;;12.13;;
39540;SDS011;25219;52.244;21.006;2023-11-19T10:15:23;27.10;;;12.57;;
39540;SDS011;25219;52.244;21.006;2023-11-19T10:17:50;23.60;;;11.70;;
39540;SDS011;25219;52.244;21.006;2023-11-19T10:20:15;22.45;;;11.57;;
39540;SDS011;25219;52.244;21.006;2023-11-19T10:22:40;21.63;;;11.20;;
39540;SDS011;25219;52.244;21.006;2023-11-19T10:25:27;21.67;;;11.68;;
39540;SDS011;25219;52.244;21.006;2023-11-19T10:27:51;21.88;;;11.60;;
39540;SDS011;25219;52.244;21.006;2023-11-19T10:30:17;25.52;;;11.82;;
39540;SDS011;25219;52.244;21.006;2023-11-19T10:32:42;23.90;;;12.38;;
39540;SDS011;25219;52.244;21.006;2023-11-19T10:35:08;27.53;;;12.10;;
39540;SDS011;25219;52.244;21.006;2023-11-19T10:37:33;26.48;;;13.57;;
39540;SDS011;25219;52.244;21.006;2023-11-19T10:40:00;25.40;;;12.45;;
39540;SDS011;25219;52.244;21.006;2023-11-19T10:42:25;23.40;;;11.75;;
39540;SDS011;25219;52.244;21.006;2023-11-19T10:44:50;23.87;;;12.40;;
39540;SDS011;25219;52.244;21.006;2023-11-19T10:47:16;23.17;;;12.20;;
39540;SDS011;25219;52.244;21.006;2023-11-19T10:49:44;25.23;;;12.15;;
39540;SDS011;25219;52.244;21.006;2023-11-19T10:52:10;26.00;;;12.52;;
39540;SDS011;25219;52.244;21.006;2023-11-19T10:54:36;24.17;;;11.40;;
39540;SDS011;25219;52.244;21.006;2023-11-19T10:57:02;25.35;;;12.25;;
39540;SDS011;25219;52.244;21.006;2023-11-19T10:59:31;20.95;;;10.77;;
39540;SDS011;25219;52.244;21.006;2023-11-19T11:01:57;25.80;;;12.80;;
39540;SDS011;25219;52.244;21.006;2023-11-19T11:04:23;22.10;;;11.88;;
39540;SDS011;25219;52.244;21.006;2023-11-19T11:06:49;26.73;;;11.82;;
39540;SDS011;25219;52.244;21.006;2023-11-19T11:09:15;25.35;;;11.77;;
39540;SDS011;25219;52.244;21.006;2023-11-19T11:11:40;22.83;;;11.90;;
39540;SDS011;25219;52.244;21.006;2023-11-19T11:14:08;24.17;;;11.55;;
39540;SDS011;25219;52.244;21.006;2023-11-19T11:16:34;26.60;;;12.48;;
39540;SDS011;25219;52.244;21.006;2023-11-19T11:19:01;25.02;;;12.18;;
39540;SDS011;25219;52.244;21.006;2023-11-19T11:21:26;27.65;;;11.60;;
39540;SDS011;25219;52.244;21.006;2023-11-19T11:23:56;22.85;;;11.60;;
39540;SDS011;25219;52.244;21.006;2023-11-19T11:26:32;26.05;;;11.73;;
39540;SDS011;25219;52.244;21.006;2023-11-19T11:29:05;27.60;;;12.48;;
39540;SDS011;25219;52.244;21.006;2023-11-19T11:31:45;26.70;;;12.70;;
39540;SDS011;25219;52.244;21.006;2023-11-19T11:50:11;26.42;;;13.35;;
39540;SDS011;25219;52.244;21.006;2023-11-19T11:55:27;25.05;;;12.18;;
39540;SDS011;25219;52.244;21.006;2023-11-19T11:57:52;25.10;;;12.68;;
39540;SDS011;25219;52.244;21.006;2023-11-19T12:00:21;24.05;;;11.65;;
39540;SDS011;25219;52.244;21.006;2023-11-19T12:02:46;24.88;;;12.00;;
39540;SDS011;25219;52.244;21.006;2023-11-19T12:05:13;25.55;;;13.63;;
39540;SDS011;25219;52.244;21.006;2023-11-19T12:07:39;27.33;;;13.10;;
39540;SDS011;25219;52.244;21.006;2023-11-19T12:10:05;26.23;;;13.55;;
39540;SDS011;25219;52.244;21.006;2023-11-19T12:12:32;31.83;;;13.57;;
39540;SDS011;25219;52.244;21.006;2023-11-19T12:17:56;31.13;;;14.95;;
39540;SDS011;25219;52.244;21.006;2023-11-19T12:20:15;30.42;;;14.30;;
39540;SDS011;25219;52.244;21.006;2023-11-19T12:22:41;27.23;;;12.80;;
39540;SDS011;25219;52.244;21.006;2023-11-19T12:25:08;27.00;;;13.07;;
39540;SDS011;25219;52.244;21.006;2023-11-19T12:27:37;27.63;;;13.25;;
39540;SDS011;25219;52.244;21.006;2023-11-19T12:30:04;26.85;;;12.88;;
39540;SDS011;25219;52.244;21.006;2023-11-19T12:32:39;26.83;;;13.55;;
39540;SDS011;25219;52.244;21.006;2023-11-19T12:35:05;28.25;;;13.90;;
39540;SDS011;25219;52.244;21.006;2023-11-19T12:37:30;26.80;;;13.25;;
39540;SDS011;25219;52.244;21.006;2023-11-19T12:39:56;28.30;;;13.73;;
39540;SDS011;25219;52.244;21.006;2023-11-19T12:42:34;24.02;;;12.80;;
39540;SDS011;25219;52.244;21.006;2023-11-19T12:44:59;28.05;;;13.35;;
39540;SDS011;25219;52.244;21.006;2023-11-19T12:47:24;25.85;;;13.48;;
39540;SDS011;25219;52.244;21.006;2023-11-19T12:49:56;27.70;;;13.97;;
39540;SDS011;25219;52.244;21.006;2023-11-19T12:52:22;25.95;;;12.35;;
39540;SDS011;25219;52.244;21.006;2023-11-19T12:54:48;23.60;;;11.50;;
39540;SDS011;25219;52.244;21.006;2023-11-19T12:57:13;26.23;;;13.15;;
39540;SDS011;25219;52.244;21.006;2023-11-19T12:59:38;23.13;;;11.60;;
39540;SDS011;25219;52.244;21.006;2023-11-19T13:02:04;25.77;;;12.10;;
39540;SDS011;25219;52.244;21.006;2023-11-19T13:04:31;25.60;;;12.70;;
39540;SDS011;25219;52.244;21.006;2023-11-19T13:06:57;23.38;;;12.13;;
39540;SDS011;25219;52.244;21.006;2023-11-19T13:11:48;26.33;;;12.77;;
39540;SDS011;25219;52.244;21.006;2023-11-19T13:14:13;21.60;;;11.60;;
39540;SDS011;25219;52.244;21.006;2023-11-19T13:16:39;24.15;;;12.90;;
39540;SDS011;25219;52.244;21.006;2023-11-19T13:19:04;28.10;;;13.35;;
39540;SDS011;25219;52.244;21.006;2023-11-19T13:21:30;23.95;;;12.80;;
39540;SDS011;25219;52.244;21.006;2023-11-19T13:23:55;29.23;;;13.43;;
39540;SDS011;25219;52.244;21.006;2023-11-19T13:26:20;26.55;;;12.32;;
39540;SDS011;25219;52.244;21.006;2023-11-19T13:28:46;28.50;;;13.43;;
39540;SDS011;25219;52.244;21.006;2023-11-19T13:31:11;26.67;;;12.70;;
39540;SDS011;25219;52.244;21.006;2023-11-19T13:33:36;27.52;;;13.50;;
39540;SDS011;25219;52.244;21.006;2023-11-19T13:36:02;26.85;;;13.13;;
39540;SDS011;25219;52.244;21.006;2023-11-19T13:38:34;25.08;;;13.65;;
39540;SDS011;25219;52.244;21.006;2023-11-19T13:41:00;28.48;;;14.60;;
39540;SDS011;25219;52.244;21.006;2023-11-19T13:43:26;28.20;;;14.43;;
39540;SDS011;25219;52.244;21.006;2023-11-19T13:45:53;26.00;;;13.60;;
39540;SDS011;25219;52.244;21.006;2023-11-19T13:48:18;33.05;;;13.88;;
39540;SDS011;25219;52.244;21.006;2023-11-19T13:50:43;30.60;;;13.30;;
39540;SDS011;25219;52.244;21.006;2023-11-19T13:53:08;32.03;;;14.88;;
39540;SDS011;25219;52.244;21.006;2023-11-19T13:55:33;30.05;;;13.48;;
39540;SDS011;25219;52.244;21.006;2023-11-19T13:57:59;30.13;;;13.13;;
39540;SDS011;25219;52.244;21.006;2023-11-19T14:00:24;26.70;;;13.45;;
39540;SDS011;25219;52.244;21.006;2023-11-19T14:02:50;32.70;;;14.43;;
39540;SDS011;25219;52.244;21.006;2023-11-19T14:05:15;28.20;;;13.90;;
39540;SDS011;25219;52.244;21.006;2023-11-19T14:07:42;28.80;;;14.10;;
39540;SDS011;25219;52.244;21.006;2023-11-19T14:10:08;31.70;;;14.48;;
39540;SDS011;25219;52.244;21.006;2023-11-19T14:12:36;31.08;;;13.68;;
39540;SDS011;25219;52.244;21.006;2023-11-19T14:15:02;30.67;;;15.75;;
39540;SDS011;25219;52.244;21.006;2023-11-19T14:17:27;35.40;;;15.40;;
39540;SDS011;25219;52.244;21.006;2023-11-19T14:19:53;28.00;;;14.95;;
39540;SDS011;25219;52.244;21.006;2023-11-19T14:22:18;32.70;;;14.02;;
39540;SDS011;25219;52.244;21.006;2023-11-19T14:24:43;34.08;;;15.60;;
39540;SDS011;25219;52.244;21.006;2023-11-19T14:27:09;31.20;;;14.60;;
39540;SDS011;25219;52.244;21.006;2023-11-19T14:29:35;28.52;;;14.32;;